ADDS METAR Data INFO
IDs: Format: Raw Decoded Include TAF

Data at: 1859 UTC 22 Sep 2017

METAR for:PAVC (King Cove Arpt, AK, US)
Text:PAVC 221853Z AUTO 00000KT 10SM -RA SCT028 OVC034 09/08 A2957 RMK AO2 P0003
Temperature: 9.0°C ( 48°F)
Dewpoint: 8.0°C ( 46°F) [RH = 93%]
Pressure (altimeter):29.57 inches Hg (1001.4 mb)
Winds:calm
Visibility:10 or more sm (16+ km)
Ceiling:3400 feet AGL
Clouds: scattered clouds at 2800 feet AGL, overcast cloud deck at 3400 feet AGL
Weather:-RA (light rain)
QC Flag:automated observation with no human augmentation
Text:PAVC 221756Z AUTO 00000KT 10SM -RA OVC022 08/08 A2957 RMK AO2 SLP020 P0001 60018 T00830078 10100 20078 55002
Temperature: 8.3°C ( 47°F)
Dewpoint: 7.8°C ( 46°F) [RH = 97%]
Pressure (altimeter):29.57 inches Hg (1001.4 mb) [Sea level pressure: 1002.0 mb]
Winds:calm
Visibility:10 or more sm (16+ km)
Ceiling:2200 feet AGL
Clouds: overcast cloud deck at 2200 feet AGL
Weather:-RA (light rain)
QC Flag:automated observation with no human augmentation
Text:PAVC 221656Z AUTO 25005KT 8SM -RA SCT004 BKN018 OVC028 08/08 A2957 RMK AO2 SLP018 P0002 T00830078
Temperature: 8.3°C ( 47°F)
Dewpoint: 7.8°C ( 46°F) [RH = 97%]
Pressure (altimeter):29.57 inches Hg (1001.4 mb) [Sea level pressure: 1001.8 mb]
Winds:from the WSW (250 degrees) at 6 MPH (5 knots; 2.6 m/s)
Visibility: 8 sm ( 13 km)
Ceiling:1800 feet AGL
Clouds: scattered clouds at 400 feet AGL, broken clouds at 1800 feet AGL, overcast cloud deck at 2800 feet AGL
Weather:-RA (light rain)
QC Flag:automated observation with no human augmentation
Text:PAVC 221653Z AUTO 23005KT 6SM -RA BR SCT004 BKN009 OVC028 08/08 A2957 RMK AO2 CIG 006V010 P0002
Temperature: 8.0°C ( 46°F)
Dewpoint: 8.0°C ( 46°F) [RH = 100%]
Pressure (altimeter):29.57 inches Hg (1001.4 mb)
Winds:from the SW (230 degrees) at 6 MPH (5 knots; 2.6 m/s)
Visibility: 6 sm ( 10 km)
Ceiling:900 feet AGL
Clouds: scattered clouds at 400 feet AGL, broken clouds at 900 feet AGL, overcast cloud deck at 2800 feet AGL
Weather:-RA BR (light rain, mist)
QC Flag:automated observation with no human augmentation
Text:PAVC 221639Z AUTO 21003KT 2 1/2SM -RA BR OVC004 08/08 A2957 RMK AO2 P0002
Temperature: 8.0°C ( 46°F)
Dewpoint: 8.0°C ( 46°F) [RH = 100%]
Pressure (altimeter):29.57 inches Hg (1001.4 mb)
Winds:from the SSW (210 degrees) at 3 MPH (3 knots; 1.5 m/s)
Visibility: 2.50 sm ( 4.02 km)
Ceiling:400 feet AGL
Clouds: overcast cloud deck at 400 feet AGL
Weather:-RA BR (light rain, mist)
QC Flag:automated observation with no human augmentation
Text:PAVC 221620Z AUTO 29003KT 3SM -RA BR BKN006 OVC011 08/08 A2957 RMK AO2 P0001
Temperature: 8.0°C ( 46°F)
Dewpoint: 8.0°C ( 46°F) [RH = 100%]
Pressure (altimeter):29.57 inches Hg (1001.4 mb)
Winds:from the WNW (290 degrees) at 3 MPH (3 knots; 1.5 m/s)
Visibility: 3 sm ( 5 km)
Ceiling:600 feet AGL
Clouds: broken clouds at 600 feet AGL, overcast cloud deck at 1100 feet AGL
Weather:-RA BR (light rain, mist)
QC Flag:automated observation with no human augmentation
Text:PAVC 221556Z AUTO 00000KT 7SM -RA FEW004 OVC011 09/09 A2958 RMK AO2 SLP022 P0003 T00890089
Temperature: 8.9°C ( 48°F)
Dewpoint: 8.9°C ( 48°F) [RH = 100%]
Pressure (altimeter):29.58 inches Hg (1001.8 mb) [Sea level pressure: 1002.2 mb]
Winds:calm
Visibility: 7 sm ( 11 km)
Ceiling:1100 feet AGL
Clouds: few clouds at 400 feet AGL, overcast cloud deck at 1100 feet AGL
Weather:-RA (light rain)
QC Flag:automated observation with no human augmentation
Text:PAVC 221554Z AUTO 00000KT 7SM -RA SCT004 OVC011 09/09 A2958 RMK AO2 P0003
Temperature: 9.0°C ( 48°F)
Dewpoint: 9.0°C ( 48°F) [RH = 100%]
Pressure (altimeter):29.58 inches Hg (1001.8 mb)
Winds:calm
Visibility: 7 sm ( 11 km)
Ceiling:1100 feet AGL
Clouds: scattered clouds at 400 feet AGL, overcast cloud deck at 1100 feet AGL
Weather:-RA (light rain)
QC Flag:automated observation with no human augmentation
Text:PAVC 221533Z AUTO 00000KT 5SM -RA BR OVC004 09/09 A2958 RMK AO2 CIG 003V008 P0002
Temperature: 9.0°C ( 48°F)
Dewpoint: 9.0°C ( 48°F) [RH = 100%]
Pressure (altimeter):29.58 inches Hg (1001.8 mb)
Winds:calm
Visibility: 5 sm ( 8 km)
Ceiling:400 feet AGL
Clouds: overcast cloud deck at 400 feet AGL
Weather:-RA BR (light rain, mist)
QC Flag:automated observation with no human augmentation
Text:PAVC 221525Z AUTO 31005KT 2 1/2SM -RA BR OVC004 09/09 A2958 RMK AO2 P0002
Temperature: 9.0°C ( 48°F)
Dewpoint: 9.0°C ( 48°F) [RH = 100%]
Pressure (altimeter):29.58 inches Hg (1001.8 mb)
Winds:from the NW (310 degrees) at 6 MPH (5 knots; 2.6 m/s)
Visibility: 2.50 sm ( 4.02 km)
Ceiling:400 feet AGL
Clouds: overcast cloud deck at 400 feet AGL
Weather:-RA BR (light rain, mist)
QC Flag:automated observation with no human augmentation
Text:PAVC 221514Z AUTO 12003KT 1 1/4SM -RA BR OVC004 09/09 A2957 RMK AO2 CIG 002V006 P0002
Temperature: 9.0°C ( 48°F)
Dewpoint: 9.0°C ( 48°F) [RH = 100%]
Pressure (altimeter):29.57 inches Hg (1001.4 mb)
Winds:from the ESE (120 degrees) at 3 MPH (3 knots; 1.5 m/s)
Visibility: 1.25 sm ( 2.01 km)
Ceiling:400 feet AGL
Clouds: overcast cloud deck at 400 feet AGL
Weather:-RA BR (light rain, mist)
QC Flag:automated observation with no human augmentation
Text:PAVC 221456Z AUTO 00000KT 3/4SM -RA BR OVC004 09/09 A2957 RMK AO2 CIG 002V006 SLP019 P0003 60012 T00940094 58004
Temperature: 9.4°C ( 49°F)
Dewpoint: 9.4°C ( 49°F) [RH = 100%]
Pressure (altimeter):29.57 inches Hg (1001.4 mb) [Sea level pressure: 1001.9 mb]
Winds:calm
Visibility: 0.75 sm ( 1.21 km)
Ceiling:400 feet AGL
Clouds: overcast cloud deck at 400 feet AGL
Weather:-RA BR (light rain, mist)
QC Flag:automated observation with no human augmentation
Text:PAVC 221429Z AUTO 00000KT 1SM -RA BR BKN002 BKN008 OVC015 09/09 A2957 RMK AO2 P0003
Temperature: 9.0°C ( 48°F)
Dewpoint: 9.0°C ( 48°F) [RH = 100%]
Pressure (altimeter):29.57 inches Hg (1001.4 mb)
Winds:calm
Visibility: 1.00 sm ( 1.61 km)
Ceiling:200 feet AGL
Clouds: broken clouds at 200 feet AGL, broken clouds at 800 feet AGL, overcast cloud deck at 1500 feet AGL
Weather:-RA BR (light rain, mist)
QC Flag:automated observation with no human augmentation
Text:PAVC 221419Z AUTO 00000KT 1 3/4SM -RA BR SCT002 BKN008 OVC015 09/09 A2958 RMK AO2 CIG 007V012 P0003
Temperature: 9.0°C ( 48°F)
Dewpoint: 9.0°C ( 48°F) [RH = 100%]
Pressure (altimeter):29.58 inches Hg (1001.8 mb)
Winds:calm
Visibility: 1.75 sm ( 2.82 km)
Ceiling:800 feet AGL
Clouds: scattered clouds at 200 feet AGL, broken clouds at 800 feet AGL, overcast cloud deck at 1500 feet AGL
Weather:-RA BR (light rain, mist)
QC Flag:automated observation with no human augmentation
Text:PAVC 221415Z AUTO 00000KT 3SM -RA BR SCT002 BKN008 OVC015 09/09 A2958 RMK AO2 P0002
Temperature: 9.0°C ( 48°F)
Dewpoint: 9.0°C ( 48°F) [RH = 100%]
Pressure (altimeter):29.58 inches Hg (1001.8 mb)
Winds:calm
Visibility: 3 sm ( 5 km)
Ceiling:800 feet AGL
Clouds: scattered clouds at 200 feet AGL, broken clouds at 800 feet AGL, overcast cloud deck at 1500 feet AGL
Weather:-RA BR (light rain, mist)
QC Flag:automated observation with no human augmentation
Text:PAVC 221405Z AUTO 00000KT 6SM RA BR FEW008 BKN015 OVC033 09/09 A2958 RMK AO2 P0001
Temperature: 9.0°C ( 48°F)
Dewpoint: 9.0°C ( 48°F) [RH = 100%]
Pressure (altimeter):29.58 inches Hg (1001.8 mb)
Winds:calm
Visibility: 6 sm ( 10 km)
Ceiling:1500 feet AGL
Clouds: few clouds at 800 feet AGL, broken clouds at 1500 feet AGL, overcast cloud deck at 3300 feet AGL
Weather:RA BR (moderate rain, mist)
QC Flag:automated observation with no human augmentation
Text:PAVC 221356Z AUTO 07003KT 2 1/2SM RA BR SCT008 BKN015 OVC060 09/09 A2958 RMK AO2 SLP021 P0005 T00940094
Temperature: 9.4°C ( 49°F)
Dewpoint: 9.4°C ( 49°F) [RH = 100%]
Pressure (altimeter):29.58 inches Hg (1001.8 mb) [Sea level pressure: 1002.1 mb]
Winds:from the ENE (70 degrees) at 3 MPH (3 knots; 1.5 m/s)
Visibility: 2.50 sm ( 4.02 km)
Ceiling:1500 feet AGL
Clouds: scattered clouds at 800 feet AGL, broken clouds at 1500 feet AGL, overcast cloud deck at 6000 feet AGL
Weather:RA BR (moderate rain, mist)
QC Flag:automated observation with no human augmentation
Text:PAVC 221351Z AUTO 06004KT 3SM -RA BR BKN008 BKN021 OVC060 09/09 A2958 RMK AO2 CIG 006V016 P0005
Temperature: 9.0°C ( 48°F)
Dewpoint: 9.0°C ( 48°F) [RH = 100%]
Pressure (altimeter):29.58 inches Hg (1001.8 mb)
Winds:from the ENE (60 degrees) at 5 MPH (4 knots; 2.1 m/s)
Visibility: 3 sm ( 5 km)
Ceiling:800 feet AGL
Clouds: broken clouds at 800 feet AGL, broken clouds at 2100 feet AGL, overcast cloud deck at 6000 feet AGL
Weather:-RA BR (light rain, mist)
QC Flag:automated observation with no human augmentation
Text:PAVC 221342Z AUTO 06003KT 8SM -RA FEW005 BKN049 OVC060 09/09 A2958 RMK AO2 P0004
Temperature: 9.0°C ( 48°F)
Dewpoint: 9.0°C ( 48°F) [RH = 100%]
Pressure (altimeter):29.58 inches Hg (1001.8 mb)
Winds:from the ENE (60 degrees) at 3 MPH (3 knots; 1.5 m/s)
Visibility: 8 sm ( 13 km)
Ceiling:4900 feet AGL
Clouds: few clouds at 500 feet AGL, broken clouds at 4900 feet AGL, overcast cloud deck at 6000 feet AGL
Weather:-RA (light rain)
QC Flag:automated observation with no human augmentation
Text:PAVC 221333Z AUTO 00000KT 9SM RA SCT005 BKN018 OVC060 09/09 A2958 RMK AO2 CIG 013V023 P0003
Temperature: 9.0°C ( 48°F)
Dewpoint: 9.0°C ( 48°F) [RH = 100%]
Pressure (altimeter):29.58 inches Hg (1001.8 mb)
Winds:calm
Visibility: 9 sm ( 14 km)
Ceiling:1800 feet AGL
Clouds: scattered clouds at 500 feet AGL, broken clouds at 1800 feet AGL, overcast cloud deck at 6000 feet AGL
Weather:RA (moderate rain)
QC Flag:automated observation with no human augmentation

TAF for:PAVC (King Cove Arpt, AK, US)
Text:No data found